sensor_id;sensor_type;location;lat;lon;timestamp;P1;durP1;ratioP1;P2;durP2;ratioP2
73487;SDS011;61721;42.206;25.320;2024-02-21T00:01:28;15.00;;;7.90;;
73487;SDS011;61721;42.206;25.320;2024-02-21T00:03:55;13.27;;;7.72;;
73487;SDS011;61721;42.206;25.320;2024-02-21T00:06:22;13.50;;;7.65;;
73487;SDS011;61721;42.206;25.320;2024-02-21T00:08:51;16.58;;;8.25;;
73487;SDS011;61721;42.206;25.320;2024-02-21T00:11:20;19.17;;;9.18;;
73487;SDS011;61721;42.206;25.320;2024-02-21T00:13:47;15.90;;;8.15;;
73487;SDS011;61721;42.206;25.320;2024-02-21T00:16:16;16.83;;;8.80;;
73487;SDS011;61721;42.206;25.320;2024-02-21T00:18:43;14.32;;;8.25;;
73487;SDS011;61721;42.206;25.320;2024-02-21T00:21:11;15.25;;;8.40;;
73487;SDS011;61721;42.206;25.320;2024-02-21T00:23:43;15.25;;;7.53;;
73487;SDS011;61721;42.206;25.320;2024-02-21T00:26:11;13.57;;;7.63;;
73487;SDS011;61721;42.206;25.320;2024-02-21T00:28:40;13.43;;;7.68;;
73487;SDS011;61721;42.206;25.320;2024-02-21T00:31:08;14.20;;;7.57;;
73487;SDS011;61721;42.206;25.320;2024-02-21T00:33:35;13.55;;;6.80;;
73487;SDS011;61721;42.206;25.320;2024-02-21T00:36:02;16.33;;;7.25;;
73487;SDS011;61721;42.206;25.320;2024-02-21T00:38:31;15.13;;;7.78;;
73487;SDS011;61721;42.206;25.320;2024-02-21T00:40:59;13.38;;;8.02;;
73487;SDS011;61721;42.206;25.320;2024-02-21T00:43:26;16.40;;;8.82;;
73487;SDS011;61721;42.206;25.320;2024-02-21T00:45:55;16.83;;;8.85;;
73487;SDS011;61721;42.206;25.320;2024-02-21T00:48:23;13.63;;;7.78;;
73487;SDS011;61721;42.206;25.320;2024-02-21T00:50:50;17.60;;;8.73;;
73487;SDS011;61721;42.206;25.320;2024-02-21T00:53:18;15.88;;;9.85;;
73487;SDS011;61721;42.206;25.320;2024-02-21T00:55:45;15.23;;;8.65;;
73487;SDS011;61721;42.206;25.320;2024-02-21T00:58:12;16.42;;;8.57;;
73487;SDS011;61721;42.206;25.320;2024-02-21T01:00:40;17.88;;;8.52;;
73487;SDS011;61721;42.206;25.320;2024-02-21T01:03:08;16.75;;;9.52;;
73487;SDS011;61721;42.206;25.320;2024-02-21T01:05:42;17.77;;;8.63;;
73487;SDS011;61721;42.206;25.320;2024-02-21T01:08:11;16.77;;;9.43;;
73487;SDS011;61721;42.206;25.320;2024-02-21T01:10:38;17.88;;;8.77;;
73487;SDS011;61721;42.206;25.320;2024-02-21T01:13:06;18.70;;;9.52;;
73487;SDS011;61721;42.206;25.320;2024-02-21T01:15:33;16.15;;;8.63;;
73487;SDS011;61721;42.206;25.320;2024-02-21T01:18:01;15.43;;;8.20;;
73487;SDS011;61721;42.206;25.320;2024-02-21T01:20:30;15.23;;;8.32;;
73487;SDS011;61721;42.206;25.320;2024-02-21T01:22:57;16.55;;;8.25;;
73487;SDS011;61721;42.206;25.320;2024-02-21T01:25:25;22.95;;;11.18;;
73487;SDS011;61721;42.206;25.320;2024-02-21T01:27:52;18.52;;;8.88;;
73487;SDS011;61721;42.206;25.320;2024-02-21T01:30:19;17.08;;;8.55;;
73487;SDS011;61721;42.206;25.320;2024-02-21T01:32:47;19.48;;;8.93;;
73487;SDS011;61721;42.206;25.320;2024-02-21T01:35:14;15.07;;;7.78;;
73487;SDS011;61721;42.206;25.320;2024-02-21T01:37:43;13.13;;;7.53;;
73487;SDS011;61721;42.206;25.320;2024-02-21T01:40:11;15.48;;;7.57;;
73487;SDS011;61721;42.206;25.320;2024-02-21T01:42:39;16.67;;;7.90;;
73487;SDS011;61721;42.206;25.320;2024-02-21T01:45:06;17.38;;;9.32;;
73487;SDS011;61721;42.206;25.320;2024-02-21T01:47:34;20.52;;;9.00;;
73487;SDS011;61721;42.206;25.320;2024-02-21T01:50:02;16.33;;;8.55;;
73487;SDS011;61721;42.206;25.320;2024-02-21T01:52:31;15.27;;;7.80;;
73487;SDS011;61721;42.206;25.320;2024-02-21T01:55:03;14.25;;;8.07;;
73487;SDS011;61721;42.206;25.320;2024-02-21T01:57:31;14.55;;;7.82;;
73487;SDS011;61721;42.206;25.320;2024-02-21T01:59:59;18.90;;;9.25;;
73487;SDS011;61721;42.206;25.320;2024-02-21T02:02:27;20.13;;;8.70;;
73487;SDS011;61721;42.206;25.320;2024-02-21T02:05:02;20.67;;;10.20;;
73487;SDS011;61721;42.206;25.320;2024-02-21T02:09:58;19.20;;;9.07;;
73487;SDS011;61721;42.206;25.320;2024-02-21T02:12:27;17.17;;;8.93;;
73487;SDS011;61721;42.206;25.320;2024-02-21T02:15:00;17.90;;;9.35;;
73487;SDS011;61721;42.206;25.320;2024-02-21T02:17:30;18.73;;;9.68;;
73487;SDS011;61721;42.206;25.320;2024-02-21T02:19:57;18.67;;;9.25;;
73487;SDS011;61721;42.206;25.320;2024-02-21T02:22:25;20.48;;;9.43;;
73487;SDS011;61721;42.206;25.320;2024-02-21T02:24:57;17.83;;;9.10;;
73487;SDS011;61721;42.206;25.320;2024-02-21T02:27:26;17.50;;;9.45;;
73487;SDS011;61721;42.206;25.320;2024-02-21T02:29:53;20.48;;;10.25;;
73487;SDS011;61721;42.206;25.320;2024-02-21T02:32:20;18.80;;;10.88;;
73487;SDS011;61721;42.206;25.320;2024-02-21T02:34:48;19.20;;;9.75;;
73487;SDS011;61721;42.206;25.320;2024-02-21T02:37:15;16.50;;;8.88;;
73487;SDS011;61721;42.206;25.320;2024-02-21T02:39:42;15.43;;;9.27;;
73487;SDS011;61721;42.206;25.320;2024-02-21T02:42:11;20.17;;;10.40;;
73487;SDS011;61721;42.206;25.320;2024-02-21T02:44:39;19.30;;;10.38;;
73487;SDS011;61721;42.206;25.320;2024-02-21T02:47:06;16.95;;;8.93;;
73487;SDS011;61721;42.206;25.320;2024-02-21T02:49:35;16.67;;;9.00;;
73487;SDS011;61721;42.206;25.320;2024-02-21T02:52:02;18.67;;;9.30;;
73487;SDS011;61721;42.206;25.320;2024-02-21T02:54:30;19.88;;;9.30;;
73487;SDS011;61721;42.206;25.320;2024-02-21T02:57:00;21.52;;;9.65;;
73487;SDS011;61721;42.206;25.320;2024-02-21T02:59:30;18.90;;;9.40;;
73487;SDS011;61721;42.206;25.320;2024-02-21T03:01:58;16.58;;;8.98;;
73487;SDS011;61721;42.206;25.320;2024-02-21T03:04:25;18.48;;;9.98;;
73487;SDS011;61721;42.206;25.320;2024-02-21T03:06:53;21.48;;;10.35;;
73487;SDS011;61721;42.206;25.320;2024-02-21T03:09:20;20.58;;;10.05;;
73487;SDS011;61721;42.206;25.320;2024-02-21T03:11:47;20.50;;;10.75;;
73487;SDS011;61721;42.206;25.320;2024-02-21T03:14:15;19.35;;;10.52;;
73487;SDS011;61721;42.206;25.320;2024-02-21T03:16:44;18.05;;;9.60;;
73487;SDS011;61721;42.206;25.320;2024-02-21T03:19:11;17.65;;;8.90;;
73487;SDS011;61721;42.206;25.320;2024-02-21T03:21:38;19.50;;;10.50;;
73487;SDS011;61721;42.206;25.320;2024-02-21T03:24:06;22.25;;;9.68;;
73487;SDS011;61721;42.206;25.320;2024-02-21T03:26:34;19.90;;;10.10;;
73487;SDS011;61721;42.206;25.320;2024-02-21T03:29:01;18.88;;;8.35;;
73487;SDS011;61721;42.206;25.320;2024-02-21T03:31:28;17.95;;;9.00;;
73487;SDS011;61721;42.206;25.320;2024-02-21T03:33:57;21.02;;;9.90;;
73487;SDS011;61721;42.206;25.320;2024-02-21T03:36:24;23.65;;;10.13;;
73487;SDS011;61721;42.206;25.320;2024-02-21T03:38:52;32.33;;;12.65;;
73487;SDS011;61721;42.206;25.320;2024-02-21T03:41:21;30.38;;;14.27;;
73487;SDS011;61721;42.206;25.320;2024-02-21T03:43:48;29.65;;;14.07;;
73487;SDS011;61721;42.206;25.320;2024-02-21T03:46:16;29.85;;;14.30;;
73487;SDS011;61721;42.206;25.320;2024-02-21T03:48:48;32.92;;;14.48;;
73487;SDS011;61721;42.206;25.320;2024-02-21T03:51:17;30.08;;;12.07;;
73487;SDS011;61721;42.206;25.320;2024-02-21T03:53:45;24.02;;;11.57;;
73487;SDS011;61721;42.206;25.320;2024-02-21T03:56:12;18.83;;;9.23;;
73487;SDS011;61721;42.206;25.320;2024-02-21T03:58:39;15.57;;;8.02;;
73487;SDS011;61721;42.206;25.320;2024-02-21T04:01:07;16.77;;;8.15;;
73487;SDS011;61721;42.206;25.320;2024-02-21T04:03:35;15.25;;;7.80;;
73487;SDS011;61721;42.206;25.320;2024-02-21T04:06:02;13.63;;;8.63;;
73487;SDS011;61721;42.206;25.320;2024-02-21T04:08:31;18.83;;;8.55;;
73487;SDS011;61721;42.206;25.320;2024-02-21T04:10:59;17.90;;;8.45;;
73487;SDS011;61721;42.206;25.320;2024-02-21T04:13:26;15.93;;;8.57;;
73487;SDS011;61721;42.206;25.320;2024-02-21T04:15:54;16.00;;;8.27;;
73487;SDS011;61721;42.206;25.320;2024-02-21T04:18:22;18.30;;;8.15;;
73487;SDS011;61721;42.206;25.320;2024-02-21T04:20:50;16.13;;;7.88;;
73487;SDS011;61721;42.206;25.320;2024-02-21T04:23:18;14.05;;;7.68;;
73487;SDS011;61721;42.206;25.320;2024-02-21T04:25:47;14.40;;;7.63;;
73487;SDS011;61721;42.206;25.320;2024-02-21T04:28:14;32.45;;;19.40;;
73487;SDS011;61721;42.206;25.320;2024-02-21T04:30:42;27.23;;;16.27;;
73487;SDS011;61721;42.206;25.320;2024-02-21T04:33:09;16.27;;;8.20;;
73487;SDS011;61721;42.206;25.320;2024-02-21T04:35:37;14.23;;;7.85;;
73487;SDS011;61721;42.206;25.320;2024-02-21T04:38:05;13.10;;;8.25;;
73487;SDS011;61721;42.206;25.320;2024-02-21T04:40:33;15.18;;;7.72;;
73487;SDS011;61721;42.206;25.320;2024-02-21T04:43:02;17.77;;;8.60;;
73487;SDS011;61721;42.206;25.320;2024-02-21T04:45:30;14.25;;;8.07;;
73487;SDS011;61721;42.206;25.320;2024-02-21T04:47:57;15.02;;;8.27;;
73487;SDS011;61721;42.206;25.320;2024-02-21T04:50:24;14.68;;;7.85;;
73487;SDS011;61721;42.206;25.320;2024-02-21T04:52:52;13.68;;;7.65;;
73487;SDS011;61721;42.206;25.320;2024-02-21T04:55:20;14.63;;;8.43;;
73487;SDS011;61721;42.206;25.320;2024-02-21T04:57:47;15.63;;;8.00;;
73487;SDS011;61721;42.206;25.320;2024-02-21T05:00:16;17.25;;;8.80;;
73487;SDS011;61721;42.206;25.320;2024-02-21T05:02:44;19.58;;;8.23;;
73487;SDS011;61721;42.206;25.320;2024-02-21T05:05:12;19.38;;;8.27;;
73487;SDS011;61721;42.206;25.320;2024-02-21T05:07:40;19.40;;;9.20;;
73487;SDS011;61721;42.206;25.320;2024-02-21T05:10:08;17.25;;;9.30;;
73487;SDS011;61721;42.206;25.320;2024-02-21T05:12:35;18.75;;;9.85;;
73487;SDS011;61721;42.206;25.320;2024-02-21T05:15:03;16.80;;;9.68;;
73487;SDS011;61721;42.206;25.320;2024-02-21T05:17:33;20.05;;;11.48;;
73487;SDS011;61721;42.206;25.320;2024-02-21T05:20:00;20.35;;;10.45;;
73487;SDS011;61721;42.206;25.320;2024-02-21T05:22:28;15.10;;;8.32;;
73487;SDS011;61721;42.206;25.320;2024-02-21T05:24:55;13.80;;;7.97;;
73487;SDS011;61721;42.206;25.320;2024-02-21T05:27:23;15.80;;;8.00;;
73487;SDS011;61721;42.206;25.320;2024-02-21T05:29:50;18.75;;;9.00;;
73487;SDS011;61721;42.206;25.320;2024-02-21T05:32:17;17.05;;;9.13;;
73487;SDS011;61721;42.206;25.320;2024-02-21T05:34:48;17.00;;;9.45;;
73487;SDS011;61721;42.206;25.320;2024-02-21T05:37:16;17.27;;;9.20;;
73487;SDS011;61721;42.206;25.320;2024-02-21T05:39:43;17.77;;;10.40;;
73487;SDS011;61721;42.206;25.320;2024-02-21T05:42:11;15.52;;;9.10;;
73487;SDS011;61721;42.206;25.320;2024-02-21T05:44:39;19.55;;;9.10;;
73487;SDS011;61721;42.206;25.320;2024-02-21T05:47:06;22.13;;;10.73;;
73487;SDS011;61721;42.206;25.320;2024-02-21T05:49:36;27.40;;;14.55;;
73487;SDS011;61721;42.206;25.320;2024-02-21T05:52:05;25.63;;;14.10;;
73487;SDS011;61721;42.206;25.320;2024-02-21T05:54:33;21.17;;;11.88;;
73487;SDS011;61721;42.206;25.320;2024-02-21T05:57:00;24.60;;;12.77;;
73487;SDS011;61721;42.206;25.320;2024-02-21T05:59:27;30.17;;;14.43;;
73487;SDS011;61721;42.206;25.320;2024-02-21T06:01:56;35.35;;;17.15;;
73487;SDS011;61721;42.206;25.320;2024-02-21T06:04:24;33.00;;;17.20;;
73487;SDS011;61721;42.206;25.320;2024-02-21T06:06:51;32.03;;;16.05;;
73487;SDS011;61721;42.206;25.320;2024-02-21T06:09:20;33.05;;;13.18;;
73487;SDS011;61721;42.206;25.320;2024-02-21T06:11:47;36.78;;;14.57;;
73487;SDS011;61721;42.206;25.320;2024-02-21T06:14:14;31.50;;;12.82;;
73487;SDS011;61721;42.206;25.320;2024-02-21T06:16:43;29.77;;;15.23;;
73487;SDS011;61721;42.206;25.320;2024-02-21T06:19:11;26.75;;;13.70;;
73487;SDS011;61721;42.206;25.320;2024-02-21T06:21:38;33.03;;;16.67;;
73487;SDS011;61721;42.206;25.320;2024-02-21T06:24:06;28.98;;;15.50;;
73487;SDS011;61721;42.206;25.320;2024-02-21T06:26:35;35.85;;;15.85;;
73487;SDS011;61721;42.206;25.320;2024-02-21T06:29:02;31.05;;;15.35;;
73487;SDS011;61721;42.206;25.320;2024-02-21T06:31:29;28.42;;;14.20;;
73487;SDS011;61721;42.206;25.320;2024-02-21T06:33:57;24.02;;;13.35;;
73487;SDS011;61721;42.206;25.320;2024-02-21T06:36:24;26.83;;;13.88;;
73487;SDS011;61721;42.206;25.320;2024-02-21T06:38:53;29.65;;;13.95;;
73487;SDS011;61721;42.206;25.320;2024-02-21T06:41:20;23.60;;;13.73;;
73487;SDS011;61721;42.206;25.320;2024-02-21T06:43:50;28.40;;;14.23;;
73487;SDS011;61721;42.206;25.320;2024-02-21T06:46:24;27.85;;;15.05;;
73487;SDS011;61721;42.206;25.320;2024-02-21T06:48:52;30.15;;;16.00;;
73487;SDS011;61721;42.206;25.320;2024-02-21T06:51:19;26.10;;;15.00;;
73487;SDS011;61721;42.206;25.320;2024-02-21T06:53:47;24.85;;;14.25;;
73487;SDS011;61721;42.206;25.320;2024-02-21T06:56:14;24.38;;;14.18;;
73487;SDS011;61721;42.206;25.320;2024-02-21T06:58:43;26.10;;;13.98;;
73487;SDS011;61721;42.206;25.320;2024-02-21T07:01:12;25.85;;;14.65;;
73487;SDS011;61721;42.206;25.320;2024-02-21T07:03:39;28.15;;;13.48;;
73487;SDS011;61721;42.206;25.320;2024-02-21T07:06:07;24.42;;;15.07;;
73487;SDS011;61721;42.206;25.320;2024-02-21T07:08:34;31.15;;;15.35;;
73487;SDS011;61721;42.206;25.320;2024-02-21T07:11:01;31.02;;;16.30;;
73487;SDS011;61721;42.206;25.320;2024-02-21T07:13:29;32.78;;;15.18;;
73487;SDS011;61721;42.206;25.320;2024-02-21T07:15:56;24.85;;;14.57;;
73487;SDS011;61721;42.206;25.320;2024-02-21T07:18:25;25.85;;;13.82;;
73487;SDS011;61721;42.206;25.320;2024-02-21T07:20:53;23.95;;;13.23;;
73487;SDS011;61721;42.206;25.320;2024-02-21T07:23:21;24.92;;;13.25;;
73487;SDS011;61721;42.206;25.320;2024-02-21T07:25:48;22.45;;;12.75;;
73487;SDS011;61721;42.206;25.320;2024-02-21T07:28:15;26.85;;;13.13;;
73487;SDS011;61721;42.206;25.320;2024-02-21T07:30:43;21.80;;;12.02;;
73487;SDS011;61721;42.206;25.320;2024-02-21T07:33:10;23.10;;;12.88;;
73487;SDS011;61721;42.206;25.320;2024-02-21T07:35:39;22.73;;;13.45;;
73487;SDS011;61721;42.206;25.320;2024-02-21T07:38:10;39.67;;;21.45;;
73487;SDS011;61721;42.206;25.320;2024-02-21T07:40:37;27.65;;;16.73;;
73487;SDS011;61721;42.206;25.320;2024-02-21T07:43:05;24.80;;;14.73;;
73487;SDS011;61721;42.206;25.320;2024-02-21T07:45:34;24.60;;;12.85;;
73487;SDS011;61721;42.206;25.320;2024-02-21T07:48:02;29.50;;;14.32;;
73487;SDS011;61721;42.206;25.320;2024-02-21T07:50:30;26.63;;;15.00;;
73487;SDS011;61721;42.206;25.320;2024-02-21T07:52:59;22.58;;;13.43;;
73487;SDS011;61721;42.206;25.320;2024-02-21T07:55:27;23.15;;;13.55;;
73487;SDS011;61721;42.206;25.320;2024-02-21T07:57:55;24.95;;;13.02;;
73487;SDS011;61721;42.206;25.320;2024-02-21T08:00:22;25.50;;;12.48;;
73487;SDS011;61721;42.206;25.320;2024-02-21T08:02:49;23.45;;;12.63;;
73487;SDS011;61721;42.206;25.320;2024-02-21T08:05:17;24.45;;;15.38;;
73487;SDS011;61721;42.206;25.320;2024-02-21T08:07:44;25.48;;;15.40;;
73487;SDS011;61721;42.206;25.320;2024-02-21T08:10:13;20.40;;;12.27;;
73487;SDS011;61721;42.206;25.320;2024-02-21T08:12:40;20.25;;;12.25;;
73487;SDS011;61721;42.206;25.320;2024-02-21T08:15:08;23.27;;;12.13;;
73487;SDS011;61721;42.206;25.320;2024-02-21T08:17:36;17.85;;;11.50;;
73487;SDS011;61721;42.206;25.320;2024-02-21T08:20:03;23.65;;;13.02;;
73487;SDS011;61721;42.206;25.320;2024-02-21T08:22:31;21.65;;;13.02;;
73487;SDS011;61721;42.206;25.320;2024-02-21T08:24:59;23.27;;;12.68;;
73487;SDS011;61721;42.206;25.320;2024-02-21T08:27:28;20.65;;;12.80;;
73487;SDS011;61721;42.206;25.320;2024-02-21T08:29:55;21.15;;;12.90;;
73487;SDS011;61721;42.206;25.320;2024-02-21T08:32:22;21.67;;;12.38;;
73487;SDS011;61721;42.206;25.320;2024-02-21T08:34:50;22.67;;;12.88;;
73487;SDS011;61721;42.206;25.320;2024-02-21T08:37:17;21.20;;;12.00;;
73487;SDS011;61721;42.206;25.320;2024-02-21T08:39:44;19.90;;;12.85;;
73487;SDS011;61721;42.206;25.320;2024-02-21T08:42:12;18.27;;;11.13;;
73487;SDS011;61721;42.206;25.320;2024-02-21T08:44:41;19.70;;;11.45;;
73487;SDS011;61721;42.206;25.320;2024-02-21T08:47:10;19.88;;;12.68;;
73487;SDS011;61721;42.206;25.320;2024-02-21T08:49:37;16.08;;;10.77;;
73487;SDS011;61721;42.206;25.320;2024-02-21T08:52:05;19.73;;;11.75;;
73487;SDS011;61721;42.206;25.320;2024-02-21T08:54:32;18.40;;;12.60;;
73487;SDS011;61721;42.206;25.320;2024-02-21T08:57:00;18.70;;;12.70;;
73487;SDS011;61721;42.206;25.320;2024-02-21T08:59:28;18.35;;;12.07;;
73487;SDS011;61721;42.206;25.320;2024-02-21T09:01:57;19.48;;;13.13;;
73487;SDS011;61721;42.206;25.320;2024-02-21T09:04:24;18.83;;;13.20;;
73487;SDS011;61721;42.206;25.320;2024-02-21T09:06:52;17.02;;;11.20;;
73487;SDS011;61721;42.206;25.320;2024-02-21T09:09:19;16.92;;;11.40;;
73487;SDS011;61721;42.206;25.320;2024-02-21T09:11:46;16.92;;;11.52;;
73487;SDS011;61721;42.206;25.320;2024-02-21T09:14:14;20.42;;;11.90;;
73487;SDS011;61721;42.206;25.320;2024-02-21T09:16:41;17.15;;;12.02;;
73487;SDS011;61721;42.206;25.320;2024-02-21T09:19:10;17.60;;;12.40;;
73487;SDS011;61721;42.206;25.320;2024-02-21T09:21:38;17.63;;;11.60;;
73487;SDS011;61721;42.206;25.320;2024-02-21T09:24:05;18.58;;;12.05;;
73487;SDS011;61721;42.206;25.320;2024-02-21T09:26:33;17.60;;;11.27;;
73487;SDS011;61721;42.206;25.320;2024-02-21T09:29:00;16.35;;;11.20;;
73487;SDS011;61721;42.206;25.320;2024-02-21T09:31:29;15.25;;;11.32;;
73487;SDS011;61721;42.206;25.320;2024-02-21T09:33:56;17.10;;;10.95;;
73487;SDS011;61721;42.206;25.320;2024-02-21T09:36:25;40.97;;;34.03;;
73487;SDS011;61721;42.206;25.320;2024-02-21T09:38:52;31.75;;;21.60;;
73487;SDS011;61721;42.206;25.320;2024-02-21T09:41:22;23.75;;;16.88;;
73487;SDS011;61721;42.206;25.320;2024-02-21T09:43:53;17.02;;;11.40;;
73487;SDS011;61721;42.206;25.320;2024-02-21T09:46:25;20.63;;;13.82;;
73487;SDS011;61721;42.206;25.320;2024-02-21T09:49:07;18.42;;;12.93;;
73487;SDS011;61721;42.206;25.320;2024-02-21T09:51:59;16.17;;;11.40;;
73487;SDS011;61721;42.206;25.320;2024-02-21T09:54:29;16.65;;;11.43;;
73487;SDS011;61721;42.206;25.320;2024-02-21T09:56:57;14.10;;;10.77;;
73487;SDS011;61721;42.206;25.320;2024-02-21T09:59:25;14.50;;;10.68;;
73487;SDS011;61721;42.206;25.320;2024-02-21T10:04:21;16.50;;;11.65;;
73487;SDS011;61721;42.206;25.320;2024-02-21T10:06:49;16.65;;;12.13;;
73487;SDS011;61721;42.206;25.320;2024-02-21T10:11:50;16.13;;;11.88;;
73487;SDS011;61721;42.206;25.320;2024-02-21T10:14:17;14.98;;;9.80;;
73487;SDS011;61721;42.206;25.320;2024-02-21T10:16:45;15.85;;;10.82;;
73487;SDS011;61721;42.206;25.320;2024-02-21T10:19:17;13.13;;;9.07;;
73487;SDS011;61721;42.206;25.320;2024-02-21T10:21:58;19.70;;;11.07;;
73487;SDS011;61721;42.206;25.320;2024-02-21T10:24:28;16.08;;;9.75;;
73487;SDS011;61721;42.206;25.320;2024-02-21T10:26:59;11.85;;;8.38;;
73487;SDS011;61721;42.206;25.320;2024-02-21T10:29:29;14.00;;;8.00;;
73487;SDS011;61721;42.206;25.320;2024-02-21T10:32:04;17.05;;;9.13;;
73487;SDS011;61721;42.206;25.320;2024-02-21T10:34:32;13.02;;;9.63;;
73487;SDS011;61721;42.206;25.320;2024-02-21T10:37:00;11.70;;;8.80;;
73487;SDS011;61721;42.206;25.320;2024-02-21T10:39:31;12.20;;;8.70;;
73487;SDS011;61721;42.206;25.320;2024-02-21T10:41:59;13.80;;;8.98;;
73487;SDS011;61721;42.206;25.320;2024-02-21T10:44:29;11.57;;;7.93;;
73487;SDS011;61721;42.206;25.320;2024-02-21T10:46:57;10.45;;;7.47;;
73487;SDS011;61721;42.206;25.320;2024-02-21T10:49:25;9.40;;;6.40;;
73487;SDS011;61721;42.206;25.320;2024-02-21T10:52:01;12.25;;;7.00;;
73487;SDS011;61721;42.206;25.320;2024-02-21T10:54:45;11.02;;;7.13;;
73487;SDS011;61721;42.206;25.320;2024-02-21T10:57:20;12.73;;;7.50;;
73487;SDS011;61721;42.206;25.320;2024-02-21T10:59:49;14.02;;;7.70;;
73487;SDS011;61721;42.206;25.320;2024-02-21T11:02:17;10.95;;;7.20;;
73487;SDS011;61721;42.206;25.320;2024-02-21T11:04:45;10.15;;;7.90;;
73487;SDS011;61721;42.206;25.320;2024-02-21T11:07:13;9.95;;;7.30;;
73487;SDS011;61721;42.206;25.320;2024-02-21T11:09:50;15.68;;;9.70;;
73487;SDS011;61721;42.206;25.320;2024-02-21T11:12:20;10.07;;;8.00;;
73487;SDS011;61721;42.206;25.320;2024-02-21T11:14:48;11.13;;;8.13;;
73487;SDS011;61721;42.206;25.320;2024-02-21T11:17:16;9.00;;;6.72;;
73487;SDS011;61721;42.206;25.320;2024-02-21T11:19:43;10.27;;;6.75;;
73487;SDS011;61721;42.206;25.320;2024-02-21T11:22:14;15.30;;;6.43;;
73487;SDS011;61721;42.206;25.320;2024-02-21T11:24:42;12.65;;;8.73;;
73487;SDS011;61721;42.206;25.320;2024-02-21T11:27:12;10.70;;;7.78;;
73487;SDS011;61721;42.206;25.320;2024-02-21T11:29:42;11.68;;;7.43;;
73487;SDS011;61721;42.206;25.320;2024-02-21T11:32:10;11.77;;;6.50;;
73487;SDS011;61721;42.206;25.320;2024-02-21T11:37:12;9.95;;;7.10;;
73487;SDS011;61721;42.206;25.320;2024-02-21T11:39:41;8.98;;;5.97;;
73487;SDS011;61721;42.206;25.320;2024-02-21T11:42:09;19.88;;;5.63;;
73487;SDS011;61721;42.206;25.320;2024-02-21T11:44:39;9.32;;;5.57;;
73487;SDS011;61721;42.206;25.320;2024-02-21T11:47:14;9.55;;;5.97;;
73487;SDS011;61721;42.206;25.320;2024-02-21T11:49:43;8.48;;;5.53;;
73487;SDS011;61721;42.206;25.320;2024-02-21T11:52:15;6.53;;;4.63;;
73487;SDS011;61721;42.206;25.320;2024-02-21T11:54:46;7.53;;;4.25;;
73487;SDS011;61721;42.206;25.320;2024-02-21T11:57:13;6.32;;;4.32;;
73487;SDS011;61721;42.206;25.320;2024-02-21T11:59:42;6.47;;;4.00;;
73487;SDS011;61721;42.206;25.320;2024-02-21T12:02:11;7.03;;;4.18;;
73487;SDS011;61721;42.206;25.320;2024-02-21T12:04:39;6.93;;;3.75;;
73487;SDS011;61721;42.206;25.320;2024-02-21T12:07:07;6.75;;;3.63;;
73487;SDS011;61721;42.206;25.320;2024-02-21T12:09:34;5.63;;;3.75;;
73487;SDS011;61721;42.206;25.320;2024-02-21T12:12:02;7.40;;;4.05;;
73487;SDS011;61721;42.206;25.320;2024-02-21T12:17:01;6.07;;;3.72;;
73487;SDS011;61721;42.206;25.320;2024-02-21T12:19:31;6.38;;;3.97;;
73487;SDS011;61721;42.206;25.320;2024-02-21T12:22:00;11.68;;;4.50;;
73487;SDS011;61721;42.206;25.320;2024-02-21T12:24:31;7.07;;;3.63;;
73487;SDS011;61721;42.206;25.320;2024-02-21T12:26:59;7.03;;;3.88;;
73487;SDS011;61721;42.206;25.320;2024-02-21T12:29:29;18.55;;;4.70;;
73487;SDS011;61721;42.206;25.320;2024-02-21T12:31:56;6.80;;;3.92;;
73487;SDS011;61721;42.206;25.320;2024-02-21T12:34:25;6.03;;;4.07;;
73487;SDS011;61721;42.206;25.320;2024-02-21T12:39:20;8.18;;;3.83;;
73487;SDS011;61721;42.206;25.320;2024-02-21T12:41:47;4.72;;;3.00;;
73487;SDS011;61721;42.206;25.320;2024-02-21T12:44:15;5.32;;;3.20;;
73487;SDS011;61721;42.206;25.320;2024-02-21T12:46:50;6.35;;;3.67;;
73487;SDS011;61721;42.206;25.320;2024-02-21T12:51:48;7.95;;;4.15;;
73487;SDS011;61721;42.206;25.320;2024-02-21T12:54:15;7.97;;;3.42;;
73487;SDS011;61721;42.206;25.320;2024-02-21T12:56:43;8.75;;;4.03;;
73487;SDS011;61721;42.206;25.320;2024-02-21T12:59:10;9.13;;;5.57;;
73487;SDS011;61721;42.206;25.320;2024-02-21T13:01:37;6.35;;;3.70;;
73487;SDS011;61721;42.206;25.320;2024-02-21T13:04:06;5.82;;;3.45;;
73487;SDS011;61721;42.206;25.320;2024-02-21T13:06:33;12.07;;;4.55;;
73487;SDS011;61721;42.206;25.320;2024-02-21T13:09:03;7.63;;;4.15;;
73487;SDS011;61721;42.206;25.320;2024-02-21T13:11:34;7.00;;;3.97;;
73487;SDS011;61721;42.206;25.320;2024-02-21T13:14:01;12.85;;;5.40;;
73487;SDS011;61721;42.206;25.320;2024-02-21T13:16:28;5.38;;;3.30;;
73487;SDS011;61721;42.206;25.320;2024-02-21T13:18:56;4.78;;;3.00;;
73487;SDS011;61721;42.206;25.320;2024-02-21T13:21:23;5.72;;;2.97;;
73487;SDS011;61721;42.206;25.320;2024-02-21T13:23:51;9.38;;;5.55;;
73487;SDS011;61721;42.206;25.320;2024-02-21T13:26:20;6.57;;;3.10;;
73487;SDS011;61721;42.206;25.320;2024-02-21T13:28:47;10.52;;;4.10;;
73487;SDS011;61721;42.206;25.320;2024-02-21T13:31:14;9.63;;;4.32;;
73487;SDS011;61721;42.206;25.320;2024-02-21T13:33:42;5.85;;;3.83;;
73487;SDS011;61721;42.206;25.320;2024-02-21T13:36:10;12.25;;;3.25;;
73487;SDS011;61721;42.206;25.320;2024-02-21T13:38:38;4.75;;;2.90;;
73487;SDS011;61721;42.206;25.320;2024-02-21T13:41:05;5.13;;;2.83;;
73487;SDS011;61721;42.206;25.320;2024-02-21T13:43:34;6.70;;;3.15;;
73487;SDS011;61721;42.206;25.320;2024-02-21T13:46:02;4.78;;;2.63;;
73487;SDS011;61721;42.206;25.320;2024-02-21T13:48:34;5.22;;;2.92;;
73487;SDS011;61721;42.206;25.320;2024-02-21T13:51:02;7.53;;;2.83;;
73487;SDS011;61721;42.206;25.320;2024-02-21T13:53:30;9.27;;;3.15;;
73487;SDS011;61721;42.206;25.320;2024-02-21T13:55:57;7.60;;;3.08;;
73487;SDS011;61721;42.206;25.320;2024-02-21T13:58:24;6.55;;;3.40;;
73487;SDS011;61721;42.206;25.320;2024-02-21T14:00:54;7.68;;;3.78;;
73487;SDS011;61721;42.206;25.320;2024-02-21T14:03:21;11.48;;;3.05;;
73487;SDS011;61721;42.206;25.320;2024-02-21T14:05:51;5.50;;;3.03;;
73487;SDS011;61721;42.206;25.320;2024-02-21T14:08:18;7.22;;;3.60;;
73487;SDS011;61721;42.206;25.320;2024-02-21T14:10:45;9.77;;;5.05;;
73487;SDS011;61721;42.206;25.320;2024-02-21T14:13:15;23.08;;;4.70;;
73487;SDS011;61721;42.206;25.320;2024-02-21T14:15:43;5.35;;;3.03;;
73487;SDS011;61721;42.206;25.320;2024-02-21T14:18:13;11.55;;;3.03;;
73487;SDS011;61721;42.206;25.320;2024-02-21T14:20:41;5.38;;;2.97;;
73487;SDS011;61721;42.206;25.320;2024-02-21T14:23:09;5.03;;;2.70;;
73487;SDS011;61721;42.206;25.320;2024-02-21T14:25:38;5.25;;;2.80;;
73487;SDS011;61721;42.206;25.320;2024-02-21T14:28:07;6.45;;;3.25;;
73487;SDS011;61721;42.206;25.320;2024-02-21T14:30:35;11.50;;;4.50;;
73487;SDS011;61721;42.206;25.320;2024-02-21T14:33:02;7.97;;;3.22;;
73487;SDS011;61721;42.206;25.320;2024-02-21T14:35:32;6.70;;;2.70;;
73487;SDS011;61721;42.206;25.320;2024-02-21T14:37:59;7.28;;;3.22;;
73487;SDS011;61721;42.206;25.320;2024-02-21T14:40:27;7.03;;;3.25;;
73487;SDS011;61721;42.206;25.320;2024-02-21T14:42:55;6.28;;;3.17;;